sensor_id;sensor_type;location;lat;lon;timestamp;pressure;altitude;pressure_sealevel;temperature;humidity
29461;BME280;16428;47.836;35.106;2023-03-04T00:00:46;100875.97;;;4.87;94.91
29461;BME280;16428;47.836;35.106;2023-03-04T00:03:15;100870.88;;;4.74;95.13
29461;BME280;16428;47.836;35.106;2023-03-04T00:05:43;100867.41;;;4.83;94.92
29461;BME280;16428;47.836;35.106;2023-03-04T00:08:11;100874.63;;;4.62;95.57
29461;BME280;16428;47.836;35.106;2023-03-04T00:10:39;100863.72;;;4.65;95.95
29461;BME280;16428;47.836;35.106;2023-03-04T00:13:26;100861.63;;;4.69;95.49
29461;BME280;16428;47.836;35.106;2023-03-04T00:15:53;100852.84;;;4.47;96.91
29461;BME280;16428;47.836;35.106;2023-03-04T00:18:21;100841.28;;;4.58;96.56
29461;BME280;16428;47.836;35.106;2023-03-04T00:20:48;100850.81;;;4.60;96.23
29461;BME280;16428;47.836;35.106;2023-03-04T00:23:16;100851.75;;;4.50;96.41
29461;BME280;16428;47.836;35.106;2023-03-04T00:25:45;100843.66;;;4.21;98.65
29461;BME280;16428;47.836;35.106;2023-03-04T00:28:16;100848.22;;;4.40;97.71
29461;BME280;16428;47.836;35.106;2023-03-04T00:30:44;100844.63;;;4.60;97.01
29461;BME280;16428;47.836;35.106;2023-03-04T00:33:12;100838.47;;;4.50;97.81
29461;BME280;16428;47.836;35.106;2023-03-04T00:35:40;100842.09;;;4.49;97.31
29461;BME280;16428;47.836;35.106;2023-03-04T00:38:09;100845.47;;;4.51;97.17
29461;BME280;16428;47.836;35.106;2023-03-04T00:40:36;100843.25;;;4.56;97.29
29461;BME280;16428;47.836;35.106;2023-03-04T00:43:04;100832.16;;;4.51;96.58
29461;BME280;16428;47.836;35.106;2023-03-04T00:45:32;100832.28;;;4.40;97.86
29461;BME280;16428;47.836;35.106;2023-03-04T00:48:04;100839.47;;;4.28;97.78
29461;BME280;16428;47.836;35.106;2023-03-04T00:50:33;100830.84;;;4.36;97.73
29461;BME280;16428;47.836;35.106;2023-03-04T00:53:01;100834.13;;;4.18;99.14
29461;BME280;16428;47.836;35.106;2023-03-04T00:55:30;100838.97;;;4.44;97.44
29461;BME280;16428;47.836;35.106;2023-03-04T00:57:58;100828.44;;;4.33;98.27
29461;BME280;16428;47.836;35.106;2023-03-04T01:00:25;100822.72;;;4.28;98.78
29461;BME280;16428;47.836;35.106;2023-03-04T01:02:53;100819.69;;;4.42;98.02
29461;BME280;16428;47.836;35.106;2023-03-04T01:05:22;100830.31;;;4.42;97.75
29461;BME280;16428;47.836;35.106;2023-03-04T01:07:50;100821.16;;;4.25;98.12
29461;BME280;16428;47.836;35.106;2023-03-04T01:10:24;100821.72;;;4.29;98.09
29461;BME280;16428;47.836;35.106;2023-03-04T01:12:52;100823.19;;;4.42;97.74
29461;BME280;16428;47.836;35.106;2023-03-04T01:15:19;100824.38;;;4.29;98.27
29461;BME280;16428;47.836;35.106;2023-03-04T01:17:49;100827.75;;;4.31;98.29
29461;BME280;16428;47.836;35.106;2023-03-04T01:20:17;100817.91;;;4.21;99.35
29461;BME280;16428;47.836;35.106;2023-03-04T01:22:45;100829.34;;;4.12;99.94
29461;BME280;16428;47.836;35.106;2023-03-04T01:25:12;100828.22;;;4.15;99.89
29461;BME280;16428;47.836;35.106;2023-03-04T01:27:40;100827.88;;;3.99;100.00
29461;BME280;16428;47.836;35.106;2023-03-04T01:30:08;100830.13;;;4.03;100.00
29461;BME280;16428;47.836;35.106;2023-03-04T01:32:36;100837.19;;;4.14;100.00
29461;BME280;16428;47.836;35.106;2023-03-04T01:35:04;100831.47;;;4.18;99.75
29461;BME280;16428;47.836;35.106;2023-03-04T01:37:33;100828.81;;;4.18;99.45
29461;BME280;16428;47.836;35.106;2023-03-04T01:40:01;100823.09;;;4.23;99.04
29461;BME280;16428;47.836;35.106;2023-03-04T01:42:31;100825.78;;;4.33;98.72
29461;BME280;16428;47.836;35.106;2023-03-04T01:45:00;100833.00;;;4.11;99.57
29461;BME280;16428;47.836;35.106;2023-03-04T01:47:31;100827.19;;;3.97;100.00
29461;BME280;16428;47.836;35.106;2023-03-04T01:50:01;100827.69;;;3.91;100.00
29461;BME280;16428;47.836;35.106;2023-03-04T01:52:33;100825.41;;;4.07;100.00
29461;BME280;16428;47.836;35.106;2023-03-04T01:55:01;100837.59;;;4.09;100.00
29461;BME280;16428;47.836;35.106;2023-03-04T01:57:34;100825.38;;;3.97;100.00
29461;BME280;16428;47.836;35.106;2023-03-04T02:00:20;100820.06;;;3.97;100.00
29461;BME280;16428;47.836;35.106;2023-03-04T02:02:52;100830.16;;;4.13;100.00
29461;BME280;16428;47.836;35.106;2023-03-04T02:05:20;100834.38;;;4.15;100.00
29461;BME280;16428;47.836;35.106;2023-03-04T02:07:49;100832.63;;;4.26;99.01
29461;BME280;16428;47.836;35.106;2023-03-04T02:10:23;100827.94;;;4.08;99.96
29461;BME280;16428;47.836;35.106;2023-03-04T02:12:52;100825.38;;;3.97;100.00
29461;BME280;16428;47.836;35.106;2023-03-04T02:15:20;100827.13;;;4.17;99.84
29461;BME280;16428;47.836;35.106;2023-03-04T02:17:49;100830.16;;;4.13;99.82
29461;BME280;16428;47.836;35.106;2023-03-04T02:23:16;100817.47;;;4.16;98.65
29461;BME280;16428;47.836;35.106;2023-03-04T02:26:21;100820.94;;;4.07;99.62
29461;BME280;16428;47.836;35.106;2023-03-04T02:28:50;100820.66;;;4.10;99.60
29461;BME280;16428;47.836;35.106;2023-03-04T02:31:30;100823.31;;;4.10;99.44
29461;BME280;16428;47.836;35.106;2023-03-04T02:34:01;100813.47;;;4.32;98.32
29461;BME280;16428;47.836;35.106;2023-03-04T02:36:31;100819.00;;;4.09;98.97
29461;BME280;16428;47.836;35.106;2023-03-04T02:39:28;100819.75;;;4.00;99.64
29461;BME280;16428;47.836;35.106;2023-03-04T02:41:58;100821.56;;;4.00;99.89
29461;BME280;16428;47.836;35.106;2023-03-04T02:44:36;100821.44;;;4.01;99.94
29461;BME280;16428;47.836;35.106;2023-03-04T02:47:07;100819.50;;;4.03;99.59
29461;BME280;16428;47.836;35.106;2023-03-04T02:49:37;100819.00;;;3.68;100.00
29461;BME280;16428;47.836;35.106;2023-03-04T02:52:18;100819.13;;;3.87;100.00
29461;BME280;16428;47.836;35.106;2023-03-04T02:54:47;100813.66;;;3.79;100.00
29461;BME280;16428;47.836;35.106;2023-03-04T02:57:14;100825.00;;;3.81;100.00
29461;BME280;16428;47.836;35.106;2023-03-04T02:59:43;100817.72;;;3.62;100.00
29461;BME280;16428;47.836;35.106;2023-03-04T03:02:12;100819.59;;;3.71;100.00
29461;BME280;16428;47.836;35.106;2023-03-04T03:04:41;100823.81;;;3.74;100.00
29461;BME280;16428;47.836;35.106;2023-03-04T03:07:08;100811.91;;;3.47;100.00
29461;BME280;16428;47.836;35.106;2023-03-04T03:09:39;100821.63;;;3.58;100.00
29461;BME280;16428;47.836;35.106;2023-03-04T03:12:07;100808.97;;;3.71;100.00
29461;BME280;16428;47.836;35.106;2023-03-04T03:14:35;100813.56;;;3.69;100.00
29461;BME280;16428;47.836;35.106;2023-03-04T03:17:02;100819.28;;;3.65;100.00
29461;BME280;16428;47.836;35.106;2023-03-04T03:19:30;100831.78;;;3.74;100.00
29461;BME280;16428;47.836;35.106;2023-03-04T03:21:58;100828.63;;;3.80;100.00
29461;BME280;16428;47.836;35.106;2023-03-04T03:24:25;100835.28;;;3.74;100.00
29461;BME280;16428;47.836;35.106;2023-03-04T03:26:53;100834.72;;;3.50;100.00
29461;BME280;16428;47.836;35.106;2023-03-04T03:29:20;100824.00;;;3.20;100.00
29461;BME280;16428;47.836;35.106;2023-03-04T03:31:48;100824.44;;;3.25;100.00
29461;BME280;16428;47.836;35.106;2023-03-04T03:34:17;100828.03;;;3.35;100.00
29461;BME280;16428;47.836;35.106;2023-03-04T03:36:45;100821.94;;;3.44;100.00
29461;BME280;16428;47.836;35.106;2023-03-04T03:39:19;100824.97;;;3.39;100.00
29461;BME280;16428;47.836;35.106;2023-03-04T03:41:46;100819.13;;;3.25;100.00
29461;BME280;16428;47.836;35.106;2023-03-04T03:44:14;100822.13;;;3.31;100.00
29461;BME280;16428;47.836;35.106;2023-03-04T03:46:44;100823.81;;;3.32;100.00
29461;BME280;16428;47.836;35.106;2023-03-04T03:49:13;100818.16;;;3.26;100.00
29461;BME280;16428;47.836;35.106;2023-03-04T03:51:40;100813.44;;;3.29;100.00
29461;BME280;16428;47.836;35.106;2023-03-04T03:54:08;100818.50;;;3.32;100.00
29461;BME280;16428;47.836;35.106;2023-03-04T03:56:37;100819.97;;;3.25;100.00
29461;BME280;16428;47.836;35.106;2023-03-04T03:59:04;100820.69;;;3.27;100.00
29461;BME280;16428;47.836;35.106;2023-03-04T04:01:32;100822.13;;;3.31;100.00
29461;BME280;16428;47.836;35.106;2023-03-04T04:04:00;100817.56;;;3.22;100.00
29461;BME280;16428;47.836;35.106;2023-03-04T04:06:27;100826.13;;;3.26;100.00
29461;BME280;16428;47.836;35.106;2023-03-04T04:08:58;100824.19;;;3.28;100.00
29461;BME280;16428;47.836;35.106;2023-03-04T04:11:25;100823.88;;;3.10;100.00
29461;BME280;16428;47.836;35.106;2023-03-04T04:13:54;100827.72;;;3.17;100.00
29461;BME280;16428;47.836;35.106;2023-03-04T04:16:22;100824.13;;;3.07;100.00
29461;BME280;16428;47.836;35.106;2023-03-04T04:18:50;100830.28;;;3.07;100.00
29461;BME280;16428;47.836;35.106;2023-03-04T04:21:21;100829.19;;;3.10;100.00
29461;BME280;16428;47.836;35.106;2023-03-04T04:23:49;100821.63;;;3.05;100.00
29461;BME280;16428;47.836;35.106;2023-03-04T04:26:16;100823.63;;;3.13;100.00
29461;BME280;16428;47.836;35.106;2023-03-04T04:28:44;100825.69;;;3.09;100.00
29461;BME280;16428;47.836;35.106;2023-03-04T04:31:11;100838.09;;;3.20;100.00
29461;BME280;16428;47.836;35.106;2023-03-04T04:33:41;100837.38;;;3.18;100.00
29461;BME280;16428;47.836;35.106;2023-03-04T04:36:13;100835.72;;;3.06;100.00
29461;BME280;16428;47.836;35.106;2023-03-04T04:38:42;100830.97;;;3.21;100.00
29461;BME280;16428;47.836;35.106;2023-03-04T04:41:21;100827.97;;;3.14;100.00
29461;BME280;16428;47.836;35.106;2023-03-04T04:43:49;100832.25;;;3.05;100.00
29461;BME280;16428;47.836;35.106;2023-03-04T04:46:16;100826.66;;;3.20;100.00
29461;BME280;16428;47.836;35.106;2023-03-04T04:48:44;100831.72;;;3.11;100.00
29461;BME280;16428;47.836;35.106;2023-03-04T04:51:12;100831.78;;;3.21;100.00
29461;BME280;16428;47.836;35.106;2023-03-04T04:53:40;100829.78;;;3.13;100.00
29461;BME280;16428;47.836;35.106;2023-03-04T04:56:16;100844.94;;;3.23;100.00
29461;BME280;16428;47.836;35.106;2023-03-04T04:58:45;100836.19;;;3.11;100.00
29461;BME280;16428;47.836;35.106;2023-03-04T05:01:14;100837.09;;;3.21;100.00
29461;BME280;16428;47.836;35.106;2023-03-04T05:03:43;100835.94;;;3.14;100.00
29461;BME280;16428;47.836;35.106;2023-03-04T05:06:11;100837.16;;;3.10;100.00
29461;BME280;16428;47.836;35.106;2023-03-04T05:08:40;100833.53;;;3.11;100.00
29461;BME280;16428;47.836;35.106;2023-03-04T05:11:08;100836.28;;;3.21;100.00
29461;BME280;16428;47.836;35.106;2023-03-04T05:13:38;100840.84;;;3.30;100.00
29461;BME280;16428;47.836;35.106;2023-03-04T05:16:07;100842.75;;;3.28;100.00
29461;BME280;16428;47.836;35.106;2023-03-04T05:18:34;100859.78;;;3.57;100.00
29461;BME280;16428;47.836;35.106;2023-03-04T05:21:02;100852.91;;;3.54;100.00
29461;BME280;16428;47.836;35.106;2023-03-04T05:23:33;100856.34;;;3.45;99.66
29461;BME280;16428;47.836;35.106;2023-03-04T05:26:02;100856.28;;;3.57;99.54
29461;BME280;16428;47.836;35.106;2023-03-04T05:28:32;100859.56;;;3.70;98.51
29461;BME280;16428;47.836;35.106;2023-03-04T05:31:00;100860.50;;;3.80;98.22
29461;BME280;16428;47.836;35.106;2023-03-04T05:33:28;100868.16;;;3.94;97.74
29461;BME280;16428;47.836;35.106;2023-03-04T05:35:55;100861.41;;;3.90;97.41
29461;BME280;16428;47.836;35.106;2023-03-04T05:38:23;100874.69;;;3.90;96.89
29461;BME280;16428;47.836;35.106;2023-03-04T05:41:00;100876.53;;;3.99;97.00
29461;BME280;16428;47.836;35.106;2023-03-04T05:43:30;100877.59;;;3.87;97.59
29461;BME280;16428;47.836;35.106;2023-03-04T05:45:58;100879.75;;;3.93;97.68
29461;BME280;16428;47.836;35.106;2023-03-04T05:48:26;100880.84;;;4.11;96.06
29461;BME280;16428;47.836;35.106;2023-03-04T05:50:57;100879.09;;;4.01;96.52
29461;BME280;16428;47.836;35.106;2023-03-04T05:53:25;100885.63;;;4.17;95.78
29461;BME280;16428;47.836;35.106;2023-03-04T05:55:53;100892.50;;;3.99;96.73
29461;BME280;16428;47.836;35.106;2023-03-04T05:58:21;100892.53;;;4.30;95.51
29461;BME280;16428;47.836;35.106;2023-03-04T06:00:49;100887.56;;;4.15;95.81
29461;BME280;16428;47.836;35.106;2023-03-04T06:03:18;100889.25;;;4.16;95.65
29461;BME280;16428;47.836;35.106;2023-03-04T06:05:47;100887.50;;;4.06;95.81
29461;BME280;16428;47.836;35.106;2023-03-04T06:08:14;100888.66;;;4.13;96.20
29461;BME280;16428;47.836;35.106;2023-03-04T06:10:42;100885.25;;;4.01;96.12
29461;BME280;16428;47.836;35.106;2023-03-04T06:13:11;100888.81;;;3.91;96.91
29461;BME280;16428;47.836;35.106;2023-03-04T06:15:40;100890.94;;;4.17;96.44
29461;BME280;16428;47.836;35.106;2023-03-04T06:18:08;100895.16;;;4.20;95.75
29461;BME280;16428;47.836;35.106;2023-03-04T06:20:37;100892.16;;;4.13;95.97
29461;BME280;16428;47.836;35.106;2023-03-04T06:23:05;100894.31;;;4.19;96.09
29461;BME280;16428;47.836;35.106;2023-03-04T06:25:32;100885.09;;;4.23;96.21
29461;BME280;16428;47.836;35.106;2023-03-04T06:28:00;100891.75;;;4.39;95.03
29461;BME280;16428;47.836;35.106;2023-03-04T06:30:28;100889.25;;;4.47;94.92
29461;BME280;16428;47.836;35.106;2023-03-04T06:32:59;100893.25;;;4.32;94.87
29461;BME280;16428;47.836;35.106;2023-03-04T06:35:27;100890.53;;;4.43;94.94
29461;BME280;16428;47.836;35.106;2023-03-04T06:37:54;100886.81;;;4.34;95.38
29461;BME280;16428;47.836;35.106;2023-03-04T06:40:22;100877.28;;;4.62;94.44
29461;BME280;16428;47.836;35.106;2023-03-04T06:42:50;100879.94;;;4.62;93.54
29461;BME280;16428;47.836;35.106;2023-03-04T06:45:18;100883.91;;;4.77;93.00
29461;BME280;16428;47.836;35.106;2023-03-04T06:47:45;100891.63;;;4.90;92.73
29461;BME280;16428;47.836;35.106;2023-03-04T06:50:13;100891.50;;;4.91;92.57
29461;BME280;16428;47.836;35.106;2023-03-04T06:52:41;100887.66;;;5.15;91.34
29461;BME280;16428;47.836;35.106;2023-03-04T06:55:13;100886.00;;;5.33;90.13
29461;BME280;16428;47.836;35.106;2023-03-04T06:57:43;100893.81;;;5.15;90.75
29461;BME280;16428;47.836;35.106;2023-03-04T07:00:13;100895.38;;;5.18;91.31
29461;BME280;16428;47.836;35.106;2023-03-04T07:02:40;100899.94;;;4.97;92.02
29461;BME280;16428;47.836;35.106;2023-03-04T07:05:09;100894.94;;;5.22;91.48
29461;BME280;16428;47.836;35.106;2023-03-04T07:07:37;100894.09;;;5.22;90.57
29461;BME280;16428;47.836;35.106;2023-03-04T07:10:05;100893.69;;;5.55;89.75
29461;BME280;16428;47.836;35.106;2023-03-04T07:12:32;100886.53;;;5.65;87.98
29461;BME280;16428;47.836;35.106;2023-03-04T07:15:04;100887.41;;;5.76;87.04
29461;BME280;16428;47.836;35.106;2023-03-04T07:17:33;100886.66;;;5.83;86.09
29461;BME280;16428;47.836;35.106;2023-03-04T07:20:02;100885.03;;;5.92;87.09
29461;BME280;16428;47.836;35.106;2023-03-04T07:22:32;100880.28;;;6.32;85.16
29461;BME280;16428;47.836;35.106;2023-03-04T07:24:59;100881.16;;;6.23;83.77
29461;BME280;16428;47.836;35.106;2023-03-04T07:27:27;100875.47;;;6.46;83.39
29461;BME280;16428;47.836;35.106;2023-03-04T07:29:54;100872.84;;;6.26;83.58
29461;BME280;16428;47.836;35.106;2023-03-04T07:32:22;100873.78;;;6.45;83.97
29461;BME280;16428;47.836;35.106;2023-03-04T07:34:50;100875.31;;;6.10;82.88
29461;BME280;16428;47.836;35.106;2023-03-04T07:37:17;100872.47;;;6.21;82.67
29461;BME280;16428;47.836;35.106;2023-03-04T07:39:45;100874.28;;;6.11;84.35
29461;BME280;16428;47.836;35.106;2023-03-04T07:42:12;100870.25;;;6.07;83.22
29461;BME280;16428;47.836;35.106;2023-03-04T07:44:40;100866.47;;;6.00;83.58
29461;BME280;16428;47.836;35.106;2023-03-04T07:47:07;100868.63;;;6.33;82.48
29461;BME280;16428;47.836;35.106;2023-03-04T07:49:35;100865.19;;;6.51;81.87
29461;BME280;16428;47.836;35.106;2023-03-04T07:52:04;100865.88;;;6.53;81.31
29461;BME280;16428;47.836;35.106;2023-03-04T07:54:33;100864.56;;;6.29;82.81
29461;BME280;16428;47.836;35.106;2023-03-04T07:57:02;100870.34;;;6.62;77.17
29461;BME280;16428;47.836;35.106;2023-03-04T07:59:31;100868.94;;;6.58;77.55
29461;BME280;16428;47.836;35.106;2023-03-04T08:01:59;100864.00;;;6.35;78.22
29461;BME280;16428;47.836;35.106;2023-03-04T08:04:26;100861.47;;;6.71;78.37
29461;BME280;16428;47.836;35.106;2023-03-04T08:06:54;100867.28;;;6.57;78.15
29461;BME280;16428;47.836;35.106;2023-03-04T08:09:21;100869.19;;;6.64;73.99
29461;BME280;16428;47.836;35.106;2023-03-04T08:11:49;100866.69;;;7.08;74.00
29461;BME280;16428;47.836;35.106;2023-03-04T08:14:17;100860.69;;;7.24;73.81
29461;BME280;16428;47.836;35.106;2023-03-04T08:16:47;100858.94;;;7.32;71.53
29461;BME280;16428;47.836;35.106;2023-03-04T08:19:16;100861.66;;;7.76;69.61
29461;BME280;16428;47.836;35.106;2023-03-04T08:21:44;100856.91;;;7.88;66.00
29461;BME280;16428;47.836;35.106;2023-03-04T08:24:12;100853.63;;;7.94;66.40
29461;BME280;16428;47.836;35.106;2023-03-04T08:26:44;100853.44;;;7.52;67.18
29461;BME280;16428;47.836;35.106;2023-03-04T08:29:16;100841.13;;;7.59;67.70
29461;BME280;16428;47.836;35.106;2023-03-04T08:31:44;100836.06;;;7.73;67.69
29461;BME280;16428;47.836;35.106;2023-03-04T08:34:15;100834.50;;;7.89;66.58
29461;BME280;16428;47.836;35.106;2023-03-04T08:36:44;100826.59;;;7.79;67.11
29461;BME280;16428;47.836;35.106;2023-03-04T08:39:14;100833.13;;;7.59;64.82
29461;BME280;16428;47.836;35.106;2023-03-04T08:41:42;100827.66;;;7.68;65.99
29461;BME280;16428;47.836;35.106;2023-03-04T08:44:10;100835.25;;;7.99;63.14
29461;BME280;16428;47.836;35.106;2023-03-04T08:46:39;100839.22;;;7.95;62.36
29461;BME280;16428;47.836;35.106;2023-03-04T08:49:10;100830.38;;;7.94;61.07
29461;BME280;16428;47.836;35.106;2023-03-04T08:51:39;100820.22;;;7.54;62.41
29461;BME280;16428;47.836;35.106;2023-03-04T08:54:06;100829.78;;;7.39;63.65
29461;BME280;16428;47.836;35.106;2023-03-04T08:56:35;100821.31;;;7.26;65.49
29461;BME280;16428;47.836;35.106;2023-03-04T08:59:03;100817.47;;;7.46;63.28
29461;BME280;16428;47.836;35.106;2023-03-04T09:01:31;100827.53;;;7.70;57.74
29461;BME280;16428;47.836;35.106;2023-03-04T09:03:59;100834.41;;;7.72;58.08
29461;BME280;16428;47.836;35.106;2023-03-04T09:06:26;100827.19;;;7.91;59.02
29461;BME280;16428;47.836;35.106;2023-03-04T09:08:54;100820.97;;;8.42;56.06
29461;BME280;16428;47.836;35.106;2023-03-04T09:11:22;100811.44;;;8.39;57.21
29461;BME280;16428;47.836;35.106;2023-03-04T09:13:52;100806.41;;;8.95;57.74
29461;BME280;16428;47.836;35.106;2023-03-04T09:16:21;100795.66;;;8.87;58.76
29461;BME280;16428;47.836;35.106;2023-03-04T09:18:49;100797.50;;;8.86;59.14
29461;BME280;16428;47.836;35.106;2023-03-04T09:21:17;100803.28;;;9.24;58.86
29461;BME280;16428;47.836;35.106;2023-03-04T09:23:45;100807.66;;;9.16;58.79
29461;BME280;16428;47.836;35.106;2023-03-04T09:26:19;100800.94;;;9.21;56.97
29461;BME280;16428;47.836;35.106;2023-03-04T09:28:52;100793.56;;;9.39;56.74
29461;BME280;16428;47.836;35.106;2023-03-04T09:31:20;100782.16;;;9.77;56.38
29461;BME280;16428;47.836;35.106;2023-03-04T09:33:50;100793.50;;;10.04;53.67
29461;BME280;16428;47.836;35.106;2023-03-04T09:36:18;100783.50;;;9.65;54.02
29461;BME280;16428;47.836;35.106;2023-03-04T09:38:49;100776.44;;;9.80;54.80
29461;BME280;16428;47.836;35.106;2023-03-04T09:41:21;100777.50;;;9.47;56.22
29461;BME280;16428;47.836;35.106;2023-03-04T09:43:51;100759.34;;;8.76;59.91
29461;BME280;16428;47.836;35.106;2023-03-04T09:46:34;100745.81;;;9.02;57.88
29461;BME280;16428;47.836;35.106;2023-03-04T09:49:03;100751.34;;;9.08;58.88
29461;BME280;16428;47.836;35.106;2023-03-04T09:51:52;100757.53;;;9.17;58.69
29461;BME280;16428;47.836;35.106;2023-03-04T09:54:40;100744.16;;;9.01;59.36
29461;BME280;16428;47.836;35.106;2023-03-04T10:00:23;100733.22;;;8.78;61.54
29461;BME280;16428;47.836;35.106;2023-03-04T10:10:55;100716.19;;;9.28;60.29
29461;BME280;16428;47.836;35.106;2023-03-04T10:13:42;100714.66;;;9.41;58.84
29461;BME280;16428;47.836;35.106;2023-03-04T10:16:17;100717.16;;;9.02;60.65
29461;BME280;16428;47.836;35.106;2023-03-04T10:19:18;100701.91;;;9.35;60.41
29461;BME280;16428;47.836;35.106;2023-03-04T10:21:49;100702.09;;;9.42;60.50
29461;BME280;16428;47.836;35.106;2023-03-04T10:24:19;100697.78;;;9.88;59.13
29461;BME280;16428;47.836;35.106;2023-03-04T10:26:53;100700.38;;;9.49;60.42
29461;BME280;16428;47.836;35.106;2023-03-04T10:29:23;100704.13;;;9.07;61.91
29461;BME280;16428;47.836;35.106;2023-03-04T10:31:53;100703.09;;;8.76;63.29
29461;BME280;16428;47.836;35.106;2023-03-04T10:34:22;100708.94;;;8.88;64.35
29461;BME280;16428;47.836;35.106;2023-03-04T10:37:02;100701.25;;;8.68;65.16
29461;BME280;16428;47.836;35.106;2023-03-04T10:39:41;100699.09;;;9.04;64.23
29461;BME280;16428;47.836;35.106;2023-03-04T10:44:59;100692.06;;;9.03;63.70
29461;BME280;16428;47.836;35.106;2023-03-04T10:47:29;100693.25;;;9.01;62.16
29461;BME280;16428;47.836;35.106;2023-03-04T10:50:00;100663.78;;;9.01;62.25
29461;BME280;16428;47.836;35.106;2023-03-04T10:52:32;100675.66;;;9.06;62.77
29461;BME280;16428;47.836;35.106;2023-03-04T10:55:05;100656.91;;;8.82;63.49
29461;BME280;16428;47.836;35.106;2023-03-04T10:57:43;100658.88;;;8.64;64.15
29461;BME280;16428;47.836;35.106;2023-03-04T11:00:26;100650.66;;;8.33;66.18
29461;BME280;16428;47.836;35.106;2023-03-04T11:06:11;100644.69;;;8.96;64.97
29461;BME280;16428;47.836;35.106;2023-03-04T11:08:43;100634.13;;;8.94;64.57
29461;BME280;16428;47.836;35.106;2023-03-04T11:11:41;100634.13;;;9.10;63.41
29461;BME280;16428;47.836;35.106;2023-03-04T11:14:34;100624.09;;;9.68;60.29
29461;BME280;16428;47.836;35.106;2023-03-04T11:19:48;100621.50;;;9.91;57.11
29461;BME280;16428;47.836;35.106;2023-03-04T11:22:20;100617.72;;;8.97;59.46
29461;BME280;16428;47.836;35.106;2023-03-04T11:24:59;100634.13;;;9.10;58.16
29461;BME280;16428;47.836;35.106;2023-03-04T11:27:37;100609.47;;;9.31;56.71
29461;BME280;16428;47.836;35.106;2023-03-04T11:30:23;100625.03;;;9.28;55.17
29461;BME280;16428;47.836;35.106;2023-03-04T11:32:58;100605.84;;;8.67;55.94
29461;BME280;16428;47.836;35.106;2023-03-04T11:35:38;100621.22;;;8.90;55.92
29461;BME280;16428;47.836;35.106;2023-03-04T11:38:20;100616.41;;;8.69;57.56
29461;BME280;16428;47.836;35.106;2023-03-04T11:40:52;100608.03;;;8.80;57.29
29461;BME280;16428;47.836;35.106;2023-03-04T11:43:29;100614.06;;;8.82;56.82
29461;BME280;16428;47.836;35.106;2023-03-04T11:46:08;100619.56;;;8.72;57.42
29461;BME280;16428;47.836;35.106;2023-03-04T11:51:42;100587.78;;;8.86;57.31
29461;BME280;16428;47.836;35.106;2023-03-04T11:57:33;100605.00;;;8.83;56.85
29461;BME280;16428;47.836;35.106;2023-03-04T12:00:19;100573.19;;;8.96;56.81
29461;BME280;16428;47.836;35.106;2023-03-04T12:06:08;100585.25;;;8.84;56.61
29461;BME280;16428;47.836;35.106;2023-03-04T12:14:19;100545.91;;;8.85;56.16
29461;BME280;16428;47.836;35.106;2023-03-04T12:16:55;100560.56;;;9.21;56.38
29461;BME280;16428;47.836;35.106;2023-03-04T12:25:06;100557.19;;;9.27;56.18
29461;BME280;16428;47.836;35.106;2023-03-04T12:28:09;100551.84;;;9.27;56.62
29461;BME280;16428;47.836;35.106;2023-03-04T12:30:53;100528.31;;;9.45;55.22
29461;BME280;16428;47.836;35.106;2023-03-04T12:36:53;100549.94;;;9.36;55.17
29461;BME280;16428;47.836;35.106;2023-03-04T12:39:35;100531.16;;;8.97;55.75
29461;BME280;16428;47.836;35.106;2023-03-04T12:55:48;100522.47;;;9.73;53.46
29461;BME280;16428;47.836;35.106;2023-03-04T12:58:28;100518.78;;;9.35;54.06
29461;BME280;16428;47.836;35.106;2023-03-04T13:01:25;100520.13;;;9.39;54.13
29461;BME280;16428;47.836;35.106;2023-03-04T13:04:11;100521.53;;;9.27;55.31
29461;BME280;16428;47.836;35.106;2023-03-04T13:09:41;100509.84;;;9.03;54.15
29461;BME280;16428;47.836;35.106;2023-03-04T13:12:19;100502.97;;;9.48;53.04
29461;BME280;16428;47.836;35.106;2023-03-04T13:17:47;100499.47;;;9.78;51.49
29461;BME280;16428;47.836;35.106;2023-03-04T13:20:31;100510.13;;;10.40;49.88
29461;BME280;16428;47.836;35.106;2023-03-04T13:38:42;100466.41;;;10.84;47.93
29461;BME280;16428;47.836;35.106;2023-03-04T13:41:28;100470.44;;;10.50;47.67
29461;BME280;16428;47.836;35.106;2023-03-04T13:44:01;100459.75;;;10.42;48.23
29461;BME280;16428;47.836;35.106;2023-03-04T13:46:40;100446.63;;;10.47;47.93
29461;BME280;16428;47.836;35.106;2023-03-04T13:49:20;100430.16;;;10.50;48.33
29461;BME280;16428;47.836;35.106;2023-03-04T13:51:51;100434.97;;;9.95;48.90
29461;BME280;16428;47.836;35.106;2023-03-04T13:59:40;100441.19;;;9.72;50.36
29461;BME280;16428;47.836;35.106;2023-03-04T14:02:10;100439.84;;;9.68;49.81
29461;BME280;16428;47.836;35.106;2023-03-04T14:04:44;100438.25;;;9.82;49.82
29461;BME280;16428;47.836;35.106;2023-03-04T14:12:38;100434.00;;;9.65;49.07
29461;BME280;16428;47.836;35.106;2023-03-04T14:17:48;100448.31;;;9.80;49.04
29461;BME280;16428;47.836;35.106;2023-03-04T14:20:25;100429.72;;;10.24;48.45
29461;BME280;16428;47.836;35.106;2023-03-04T14:22:56;100429.72;;;10.24;48.54
29461;BME280;16428;47.836;35.106;2023-03-04T14:25:30;100431.28;;;10.18;49.26
29461;BME280;16428;47.836;35.106;2023-03-04T14:28:18;100418.63;;;10.27;48.50
29461;BME280;16428;47.836;35.106;2023-03-04T14:30:51;100427.09;;;10.16;48.55
29461;BME280;16428;47.836;35.106;2023-03-04T14:33:23;100417.03;;;9.95;49.82
29461;BME280;16428;47.836;35.106;2023-03-04T14:35:59;100422.63;;;9.85;49.52
29461;BME280;16428;47.836;35.106;2023-03-04T14:38:31;100409.69;;;9.66;50.12
29461;BME280;16428;47.836;35.106;2023-03-04T14:46:42;100419.75;;;9.10;51.94
29461;BME280;16428;47.836;35.106;2023-03-04T14:49:33;100418.00;;;8.87;52.40